sensor_id;sensor_type;location;lat;lon;timestamp;temperature;humidity
78366;HTU21D;67641;59.864;30.464;2023-05-10T00:01:05;15.37;61.40
78366;HTU21D;67641;59.864;30.464;2023-05-10T00:03:31;15.38;61.29
78366;HTU21D;67641;59.864;30.464;2023-05-10T00:05:58;15.39;60.93
78366;HTU21D;67641;59.864;30.464;2023-05-10T00:08:25;15.38;61.02
78366;HTU21D;67641;59.864;30.464;2023-05-10T00:10:52;15.39;60.97
78366;HTU21D;67641;59.864;30.464;2023-05-10T00:16:01;15.38;61.32
78366;HTU21D;67641;59.864;30.464;2023-05-10T00:18:27;15.41;61.50
78366;HTU21D;67641;59.864;30.464;2023-05-10T00:20:55;15.38;61.88
78366;HTU21D;67641;59.864;30.464;2023-05-10T00:23:22;15.36;62.38
78366;HTU21D;67641;59.864;30.464;2023-05-10T00:25:50;15.32;61.76
78366;HTU21D;67641;59.864;30.464;2023-05-10T00:28:16;15.29;60.93
78366;HTU21D;67641;59.864;30.464;2023-05-10T00:30:42;15.36;60.89
78366;HTU21D;67641;59.864;30.464;2023-05-10T00:33:09;15.34;61.44
78366;HTU21D;67641;59.864;30.464;2023-05-10T00:37:58;15.26;61.05
78366;HTU21D;67641;59.864;30.464;2023-05-10T00:40:25;15.24;60.51
78366;HTU21D;67641;59.864;30.464;2023-05-10T00:42:52;15.24;60.70
78366;HTU21D;67641;59.864;30.464;2023-05-10T00:45:18;15.28;60.44
78366;HTU21D;67641;59.864;30.464;2023-05-10T00:47:45;15.34;60.29
78366;HTU21D;67641;59.864;30.464;2023-05-10T00:50:11;15.40;60.09
78366;HTU21D;67641;59.864;30.464;2023-05-10T00:52:37;15.37;59.67
78366;HTU21D;67641;59.864;30.464;2023-05-10T00:55:04;15.40;60.06
78366;HTU21D;67641;59.864;30.464;2023-05-10T01:00:33;15.47;59.46
78366;HTU21D;67641;59.864;30.464;2023-05-10T01:02:59;15.51;59.13
78366;HTU21D;67641;59.864;30.464;2023-05-10T01:05:26;15.47;60.01
78366;HTU21D;67641;59.864;30.464;2023-05-10T01:07:53;15.46;60.30
78366;HTU21D;67641;59.864;30.464;2023-05-10T01:10:19;15.43;59.58
78366;HTU21D;67641;59.864;30.464;2023-05-10T01:12:46;15.46;59.48
78366;HTU21D;67641;59.864;30.464;2023-05-10T01:15:14;15.46;59.55
78366;HTU21D;67641;59.864;30.464;2023-05-10T01:17:44;15.40;59.64
78366;HTU21D;67641;59.864;30.464;2023-05-10T01:28:39;15.32;59.79
78366;HTU21D;67641;59.864;30.464;2023-05-10T01:34:20;15.28;60.06
78366;HTU21D;67641;59.864;30.464;2023-05-10T01:36:40;15.27;60.19
78366;HTU21D;67641;59.864;30.464;2023-05-10T01:39:23;15.27;59.92
78366;HTU21D;67641;59.864;30.464;2023-05-10T01:42:03;15.28;58.78
78366;HTU21D;67641;59.864;30.464;2023-05-10T01:45:14;15.32;59.30
78366;HTU21D;67641;59.864;30.464;2023-05-10T01:48:06;15.34;59.17
78366;HTU21D;67641;59.864;30.464;2023-05-10T01:50:37;15.38;59.64
78366;HTU21D;67641;59.864;30.464;2023-05-10T01:53:09;15.40;59.22
78366;HTU21D;67641;59.864;30.464;2023-05-10T01:55:48;15.37;59.56
78366;HTU21D;67641;59.864;30.464;2023-05-10T01:58:24;15.32;60.00
78366;HTU21D;67641;59.864;30.464;2023-05-10T02:00:52;15.28;60.28
78366;HTU21D;67641;59.864;30.464;2023-05-10T02:03:24;15.26;60.25
78366;HTU21D;67641;59.864;30.464;2023-05-10T02:08:01;15.37;59.70
78366;HTU21D;67641;59.864;30.464;2023-05-10T02:10:29;15.34;60.38
78366;HTU21D;67641;59.864;30.464;2023-05-10T02:12:58;15.38;59.54
78366;HTU21D;67641;59.864;30.464;2023-05-10T02:15:26;15.40;59.29
78366;HTU21D;67641;59.864;30.464;2023-05-10T02:17:58;15.37;58.77
78366;HTU21D;67641;59.864;30.464;2023-05-10T02:20:33;15.39;58.74
78366;HTU21D;67641;59.864;30.464;2023-05-10T02:23:02;15.39;59.27
78366;HTU21D;67641;59.864;30.464;2023-05-10T02:25:32;15.42;59.04
78366;HTU21D;67641;59.864;30.464;2023-05-10T02:30:40;15.41;59.02
78366;HTU21D;67641;59.864;30.464;2023-05-10T02:33:08;15.44;58.32
78366;HTU21D;67641;59.864;30.464;2023-05-10T02:35:35;15.42;59.70
78366;HTU21D;67641;59.864;30.464;2023-05-10T02:38:04;15.43;59.62
78366;HTU21D;67641;59.864;30.464;2023-05-10T02:40:32;15.47;59.38
78366;HTU21D;67641;59.864;30.464;2023-05-10T02:43:01;15.52;58.80
78366;HTU21D;67641;59.864;30.464;2023-05-10T02:45:30;15.54;58.69
78366;HTU21D;67641;59.864;30.464;2023-05-10T02:47:58;15.56;58.77
78366;HTU21D;67641;59.864;30.464;2023-05-10T02:53:17;15.57;59.47
78366;HTU21D;67641;59.864;30.464;2023-05-10T02:55:49;15.56;58.94
78366;HTU21D;67641;59.864;30.464;2023-05-10T02:58:17;15.58;59.38
78366;HTU21D;67641;59.864;30.464;2023-05-10T03:00:45;15.63;59.61
78366;HTU21D;67641;59.864;30.464;2023-05-10T03:03:13;15.62;58.90
78366;HTU21D;67641;59.864;30.464;2023-05-10T03:05:41;15.62;59.55
78366;HTU21D;67641;59.864;30.464;2023-05-10T03:08:08;15.63;58.96
78366;HTU21D;67641;59.864;30.464;2023-05-10T03:10:45;15.68;59.09
78366;HTU21D;67641;59.864;30.464;2023-05-10T03:16:24;15.69;59.35
78366;HTU21D;67641;59.864;30.464;2023-05-10T03:18:54;15.74;59.38
78366;HTU21D;67641;59.864;30.464;2023-05-10T03:21:23;15.71;59.92
78366;HTU21D;67641;59.864;30.464;2023-05-10T03:23:59;15.78;60.11
78366;HTU21D;67641;59.864;30.464;2023-05-10T03:26:29;15.84;60.21
78366;HTU21D;67641;59.864;30.464;2023-05-10T03:28:57;15.88;60.25
78366;HTU21D;67641;59.864;30.464;2023-05-10T03:31:25;15.93;60.26
78366;HTU21D;67641;59.864;30.464;2023-05-10T03:33:52;15.93;59.87
78366;HTU21D;67641;59.864;30.464;2023-05-10T03:38:59;16.02;60.29
78366;HTU21D;67641;59.864;30.464;2023-05-10T03:41:26;16.05;60.23
78366;HTU21D;67641;59.864;30.464;2023-05-10T03:43:52;16.16;60.21
78366;HTU21D;67641;59.864;30.464;2023-05-10T03:46:19;16.13;60.48
78366;HTU21D;67641;59.864;30.464;2023-05-10T03:48:46;16.08;60.93
78366;HTU21D;67641;59.864;30.464;2023-05-10T03:51:13;16.16;61.05
78366;HTU21D;67641;59.864;30.464;2023-05-10T03:53:40;16.20;61.16
78366;HTU21D;67641;59.864;30.464;2023-05-10T03:56:07;16.32;61.28
78366;HTU21D;67641;59.864;30.464;2023-05-10T03:58:36;16.29;62.57
78366;HTU21D;67641;59.864;30.464;2023-05-10T04:01:28;16.18;63.81
78366;HTU21D;67641;59.864;30.464;2023-05-10T04:03:54;16.25;64.06
78366;HTU21D;67641;59.864;30.464;2023-05-10T04:06:21;16.22;64.17
78366;HTU21D;67641;59.864;30.464;2023-05-10T04:08:47;16.28;63.79
78366;HTU21D;67641;59.864;30.464;2023-05-10T04:11:14;16.30;63.80
78366;HTU21D;67641;59.864;30.464;2023-05-10T04:13:41;16.36;63.70
78366;HTU21D;67641;59.864;30.464;2023-05-10T04:16:09;16.47;63.53
78366;HTU21D;67641;59.864;30.464;2023-05-10T04:18:35;16.46;64.24
78366;HTU21D;67641;59.864;30.464;2023-05-10T04:23:43;16.39;65.50
78366;HTU21D;67641;59.864;30.464;2023-05-10T04:26:09;16.40;65.59
78366;HTU21D;67641;59.864;30.464;2023-05-10T04:28:36;16.42;65.46
78366;HTU21D;67641;59.864;30.464;2023-05-10T04:31:07;16.48;65.59
78366;HTU21D;67641;59.864;30.464;2023-05-10T04:33:33;16.60;65.04
78366;HTU21D;67641;59.864;30.464;2023-05-10T04:36:00;16.75;64.70
78366;HTU21D;67641;59.864;30.464;2023-05-10T04:38:30;16.81;64.69
78366;HTU21D;67641;59.864;30.464;2023-05-10T04:41:06;16.88;65.56
78366;HTU21D;67641;59.864;30.464;2023-05-10T04:46:11;16.95;65.65
78366;HTU21D;67641;59.864;30.464;2023-05-10T04:48:37;16.98;65.88
78366;HTU21D;67641;59.864;30.464;2023-05-10T04:51:04;17.10;64.96
78366;HTU21D;67641;59.864;30.464;2023-05-10T04:53:33;17.29;64.50
78366;HTU21D;67641;59.864;30.464;2023-05-10T04:55:59;17.48;64.28
78366;HTU21D;67641;59.864;30.464;2023-05-10T04:58:26;17.63;64.24
78366;HTU21D;67641;59.864;30.464;2023-05-10T05:00:52;17.79;63.29
78366;HTU21D;67641;59.864;30.464;2023-05-10T05:03:19;17.90;63.05
78366;HTU21D;67641;59.864;30.464;2023-05-10T05:08:25;18.09;62.02
78366;HTU21D;67641;59.864;30.464;2023-05-10T05:10:51;18.19;57.61
78366;HTU21D;67641;59.864;30.464;2023-05-10T05:13:18;18.29;55.36
78366;HTU21D;67641;59.864;30.464;2023-05-10T05:15:44;18.39;55.39
78366;HTU21D;67641;59.864;30.464;2023-05-10T05:18:10;18.47;54.26
78366;HTU21D;67641;59.864;30.464;2023-05-10T05:20:37;18.50;52.44
78366;HTU21D;67641;59.864;30.464;2023-05-10T05:23:04;18.57;52.48
78366;HTU21D;67641;59.864;30.464;2023-05-10T05:25:30;18.59;51.17
78366;HTU21D;67641;59.864;30.464;2023-05-10T05:27:57;18.62;50.37
78366;HTU21D;67641;59.864;30.464;2023-05-10T05:32:05;18.61;52.61
78366;HTU21D;67641;59.864;30.464;2023-05-10T05:34:31;18.61;50.69
78366;HTU21D;67641;59.864;30.464;2023-05-10T05:36:58;18.65;50.10
78366;HTU21D;67641;59.864;30.464;2023-05-10T05:39:25;18.66;49.17
78366;HTU21D;67641;59.864;30.464;2023-05-10T05:41:51;18.69;49.06
78366;HTU21D;67641;59.864;30.464;2023-05-10T05:44:17;18.71;50.05
78366;HTU21D;67641;59.864;30.464;2023-05-10T05:46:43;18.70;47.91
78366;HTU21D;67641;59.864;30.464;2023-05-10T05:49:10;18.69;49.11
78366;HTU21D;67641;59.864;30.464;2023-05-10T05:51:36;18.71;47.30
78366;HTU21D;67641;59.864;30.464;2023-05-10T05:55:58;18.71;49.42
78366;HTU21D;67641;59.864;30.464;2023-05-10T05:58:25;18.72;49.18
78366;HTU21D;67641;59.864;30.464;2023-05-10T06:00:52;18.74;47.81
78366;HTU21D;67641;59.864;30.464;2023-05-10T06:03:19;18.76;48.92
78366;HTU21D;67641;59.864;30.464;2023-05-10T06:05:45;18.77;49.92
78366;HTU21D;67641;59.864;30.464;2023-05-10T06:08:11;18.76;49.44
78366;HTU21D;67641;59.864;30.464;2023-05-10T06:10:38;18.77;48.16
78366;HTU21D;67641;59.864;30.464;2023-05-10T06:13:04;18.81;48.27
78366;HTU21D;67641;59.864;30.464;2023-05-10T06:18:11;18.91;47.38
78366;HTU21D;67641;59.864;30.464;2023-05-10T06:20:38;18.93;47.02
78366;HTU21D;67641;59.864;30.464;2023-05-10T06:23:07;18.96;46.09
78366;HTU21D;67641;59.864;30.464;2023-05-10T06:25:34;19.00;46.62
78366;HTU21D;67641;59.864;30.464;2023-05-10T06:28:00;19.07;46.40
78366;HTU21D;67641;59.864;30.464;2023-05-10T06:30:27;19.11;47.14
78366;HTU21D;67641;59.864;30.464;2023-05-10T06:32:54;19.16;46.79
78366;HTU21D;67641;59.864;30.464;2023-05-10T06:35:21;19.21;47.48
78366;HTU21D;67641;59.864;30.464;2023-05-10T06:40:42;19.28;48.33
78366;HTU21D;67641;59.864;30.464;2023-05-10T06:43:10;19.35;48.89
78366;HTU21D;67641;59.864;30.464;2023-05-10T06:45:37;19.40;47.47
78366;HTU21D;67641;59.864;30.464;2023-05-10T06:48:04;19.44;47.42
78366;HTU21D;67641;59.864;30.464;2023-05-10T06:50:30;19.50;47.53
78366;HTU21D;67641;59.864;30.464;2023-05-10T06:52:57;19.53;46.11
78366;HTU21D;67641;59.864;30.464;2023-05-10T06:55:24;19.59;46.52
78366;HTU21D;67641;59.864;30.464;2023-05-10T06:57:51;19.65;45.77
78366;HTU21D;67641;59.864;30.464;2023-05-10T07:00:19;19.70;46.07
78366;HTU21D;67641;59.864;30.464;2023-05-10T07:04:53;19.81;44.83
78366;HTU21D;67641;59.864;30.464;2023-05-10T07:07:20;19.82;43.56
78366;HTU21D;67641;59.864;30.464;2023-05-10T07:09:47;19.82;45.58
78366;HTU21D;67641;59.864;30.464;2023-05-10T07:12:14;19.87;45.19
78366;HTU21D;67641;59.864;30.464;2023-05-10T07:14:41;19.89;45.49
78366;HTU21D;67641;59.864;30.464;2023-05-10T07:17:08;19.88;45.77
78366;HTU21D;67641;59.864;30.464;2023-05-10T07:19:35;19.84;46.77
78366;HTU21D;67641;59.864;30.464;2023-05-10T07:22:02;19.83;46.51
78366;HTU21D;67641;59.864;30.464;2023-05-10T07:27:30;19.85;46.31
78366;HTU21D;67641;59.864;30.464;2023-05-10T07:29:56;19.81;47.12
78366;HTU21D;67641;59.864;30.464;2023-05-10T07:32:23;19.86;46.10
78366;HTU21D;67641;59.864;30.464;2023-05-10T07:34:50;19.91;46.08
78366;HTU21D;67641;59.864;30.464;2023-05-10T07:37:16;19.90;45.39
78366;HTU21D;67641;59.864;30.464;2023-05-10T07:39:43;19.91;45.55
78366;HTU21D;67641;59.864;30.464;2023-05-10T07:42:09;19.94;45.61
78366;HTU21D;67641;59.864;30.464;2023-05-10T07:44:36;19.96;44.44
78366;HTU21D;67641;59.864;30.464;2023-05-10T07:50:05;19.99;46.24
78366;HTU21D;67641;59.864;30.464;2023-05-10T07:52:52;20.00;46.78
78366;HTU21D;67641;59.864;30.464;2023-05-10T07:55:19;20.01;46.75
78366;HTU21D;67641;59.864;30.464;2023-05-10T07:57:47;20.00;47.89
78366;HTU21D;67641;59.864;30.464;2023-05-10T08:00:17;20.01;48.86
78366;HTU21D;67641;59.864;30.464;2023-05-10T08:02:48;20.05;47.86
78366;HTU21D;67641;59.864;30.464;2023-05-10T08:05:14;20.14;49.44
78366;HTU21D;67641;59.864;30.464;2023-05-10T08:07:41;20.18;49.06
78366;HTU21D;67641;59.864;30.464;2023-05-10T08:12:50;20.16;49.36
78366;HTU21D;67641;59.864;30.464;2023-05-10T08:15:16;20.14;48.73
78366;HTU21D;67641;59.864;30.464;2023-05-10T08:17:43;20.12;48.27
78366;HTU21D;67641;59.864;30.464;2023-05-10T08:20:10;20.12;47.83
78366;HTU21D;67641;59.864;30.464;2023-05-10T08:22:38;20.13;47.67
78366;HTU21D;67641;59.864;30.464;2023-05-10T08:25:05;20.22;47.54
78366;HTU21D;67641;59.864;30.464;2023-05-10T08:27:31;20.29;46.22
78366;HTU21D;67641;59.864;30.464;2023-05-10T08:29:58;20.27;46.39
78366;HTU21D;67641;59.864;30.464;2023-05-10T08:32:24;20.21;46.31
78366;HTU21D;67641;59.864;30.464;2023-05-10T08:35:22;20.19;47.57
78366;HTU21D;67641;59.864;30.464;2023-05-10T08:37:48;20.26;47.15
78366;HTU21D;67641;59.864;30.464;2023-05-10T08:40:15;20.28;47.16
78366;HTU21D;67641;59.864;30.464;2023-05-10T08:42:49;20.35;47.53
78366;HTU21D;67641;59.864;30.464;2023-05-10T08:45:18;20.33;46.74
78366;HTU21D;67641;59.864;30.464;2023-05-10T08:47:46;20.31;47.26
78366;HTU21D;67641;59.864;30.464;2023-05-10T08:50:13;20.34;46.83
78366;HTU21D;67641;59.864;30.464;2023-05-10T08:52:41;20.37;48.02
78366;HTU21D;67641;59.864;30.464;2023-05-10T08:55:08;20.45;46.91
78366;HTU21D;67641;59.864;30.464;2023-05-10T09:00:11;20.44;46.54
78366;HTU21D;67641;59.864;30.464;2023-05-10T09:02:39;20.42;46.38
78366;HTU21D;67641;59.864;30.464;2023-05-10T09:05:06;20.40;46.23
78366;HTU21D;67641;59.864;30.464;2023-05-10T09:07:33;20.37;46.45
78366;HTU21D;67641;59.864;30.464;2023-05-10T09:10:00;20.40;46.56
78366;HTU21D;67641;59.864;30.464;2023-05-10T09:12:27;20.39;45.83
78366;HTU21D;67641;59.864;30.464;2023-05-10T09:14:54;20.44;46.70
78366;HTU21D;67641;59.864;30.464;2023-05-10T09:17:40;20.50;44.74
78366;HTU21D;67641;59.864;30.464;2023-05-10T09:20:08;20.50;45.75
78366;HTU21D;67641;59.864;30.464;2023-05-10T09:22:52;20.54;45.92
78366;HTU21D;67641;59.864;30.464;2023-05-10T09:25:19;20.63;44.77
78366;HTU21D;67641;59.864;30.464;2023-05-10T09:27:47;20.68;44.66
78366;HTU21D;67641;59.864;30.464;2023-05-10T09:30:23;20.72;45.16
78366;HTU21D;67641;59.864;30.464;2023-05-10T09:32:51;20.76;44.56
78366;HTU21D;67641;59.864;30.464;2023-05-10T09:35:19;20.78;45.20
78366;HTU21D;67641;59.864;30.464;2023-05-10T09:37:49;20.72;46.14
78366;HTU21D;67641;59.864;30.464;2023-05-10T09:40:20;20.69;46.28
78366;HTU21D;67641;59.864;30.464;2023-05-10T09:43:59;20.64;46.88
78366;HTU21D;67641;59.864;30.464;2023-05-10T09:46:26;20.66;47.68
78366;HTU21D;67641;59.864;30.464;2023-05-10T09:48:52;20.76;47.57
78366;HTU21D;67641;59.864;30.464;2023-05-10T09:51:23;20.74;47.45
78366;HTU21D;67641;59.864;30.464;2023-05-10T09:56:37;20.78;47.40
78366;HTU21D;67641;59.864;30.464;2023-05-10T09:59:07;20.87;47.13
78366;HTU21D;67641;59.864;30.464;2023-05-10T10:01:34;20.94;45.99
78366;HTU21D;67641;59.864;30.464;2023-05-10T10:07:03;20.95;45.17
78366;HTU21D;67641;59.864;30.464;2023-05-10T10:09:30;21.03;45.25
78366;HTU21D;67641;59.864;30.464;2023-05-10T10:11:57;21.02;45.79
78366;HTU21D;67641;59.864;30.464;2023-05-10T10:14:24;21.15;46.11
78366;HTU21D;67641;59.864;30.464;2023-05-10T10:16:50;21.28;45.81
78366;HTU21D;67641;59.864;30.464;2023-05-10T10:19:18;21.34;45.01
78366;HTU21D;67641;59.864;30.464;2023-05-10T10:21:47;21.37;45.26
78366;HTU21D;67641;59.864;30.464;2023-05-10T10:24:14;21.34;46.47
78366;HTU21D;67641;59.864;30.464;2023-05-10T10:26:42;21.33;45.91
78366;HTU21D;67641;59.864;30.464;2023-05-10T10:35:32;21.44;46.57
78366;HTU21D;67641;59.864;30.464;2023-05-10T10:37:58;21.45;45.38
78366;HTU21D;67641;59.864;30.464;2023-05-10T10:40:33;21.40;44.49
78366;HTU21D;67641;59.864;30.464;2023-05-10T10:43:28;21.36;45.18
78366;HTU21D;67641;59.864;30.464;2023-05-10T10:46:14;21.38;45.01
78366;HTU21D;67641;59.864;30.464;2023-05-10T10:48:41;21.32;44.48
78366;HTU21D;67641;59.864;30.464;2023-05-10T10:53:49;21.36;43.81
78366;HTU21D;67641;59.864;30.464;2023-05-10T10:56:22;21.42;43.82
78366;HTU21D;67641;59.864;30.464;2023-05-10T10:58:50;21.49;44.03
78366;HTU21D;67641;59.864;30.464;2023-05-10T11:01:19;21.52;42.58
78366;HTU21D;67641;59.864;30.464;2023-05-10T11:06:41;21.44;43.22
78366;HTU21D;67641;59.864;30.464;2023-05-10T11:09:10;21.40;42.86
78366;HTU21D;67641;59.864;30.464;2023-05-10T11:11:51;21.48;43.13
78366;HTU21D;67641;59.864;30.464;2023-05-10T11:17:28;21.43;42.05
78366;HTU21D;67641;59.864;30.464;2023-05-10T11:20:10;21.42;42.24
78366;HTU21D;67641;59.864;30.464;2023-05-10T11:22:51;21.38;41.43
78366;HTU21D;67641;59.864;30.464;2023-05-10T11:25:18;21.35;41.43
78366;HTU21D;67641;59.864;30.464;2023-05-10T11:27:47;21.34;42.13
78366;HTU21D;67641;59.864;30.464;2023-05-10T11:30:14;21.37;41.85
78366;HTU21D;67641;59.864;30.464;2023-05-10T11:32:41;21.43;41.97
78366;HTU21D;67641;59.864;30.464;2023-05-10T11:35:09;21.52;42.10
78366;HTU21D;67641;59.864;30.464;2023-05-10T11:37:36;21.55;41.60
78366;HTU21D;67641;59.864;30.464;2023-05-10T11:41:48;21.68;41.78
78366;HTU21D;67641;59.864;30.464;2023-05-10T11:44:14;21.70;40.96
78366;HTU21D;67641;59.864;30.464;2023-05-10T11:46:41;21.63;40.20
78366;HTU21D;67641;59.864;30.464;2023-05-10T11:49:07;21.60;41.14
78366;HTU21D;67641;59.864;30.464;2023-05-10T11:51:35;21.53;41.76
78366;HTU21D;67641;59.864;30.464;2023-05-10T11:54:06;21.49;42.48
78366;HTU21D;67641;59.864;30.464;2023-05-10T11:56:34;21.48;43.08
78366;HTU21D;67641;59.864;30.464;2023-05-10T11:59:01;21.55;43.10
78366;HTU21D;67641;59.864;30.464;2023-05-10T12:04:10;21.65;42.94
78366;HTU21D;67641;59.864;30.464;2023-05-10T12:06:40;21.64;42.90
78366;HTU21D;67641;59.864;30.464;2023-05-10T12:09:07;21.61;43.98
78366;HTU21D;67641;59.864;30.464;2023-05-10T12:11:40;21.62;43.20
78366;HTU21D;67641;59.864;30.464;2023-05-10T12:14:08;21.62;44.17
78366;HTU21D;67641;59.864;30.464;2023-05-10T12:16:35;21.64;44.16
78366;HTU21D;67641;59.864;30.464;2023-05-10T12:19:02;21.66;44.36
78366;HTU21D;67641;59.864;30.464;2023-05-10T12:21:29;21.64;43.93
78366;HTU21D;67641;59.864;30.464;2023-05-10T12:26:41;21.66;43.87
78366;HTU21D;67641;59.864;30.464;2023-05-10T12:29:12;21.65;45.11
78366;HTU21D;67641;59.864;30.464;2023-05-10T12:34:34;21.61;44.82
78366;HTU21D;67641;59.864;30.464;2023-05-10T12:37:02;21.60;44.68
78366;HTU21D;67641;59.864;30.464;2023-05-10T12:39:43;21.55;45.34
78366;HTU21D;67641;59.864;30.464;2023-05-10T12:42:10;21.60;45.27
78366;HTU21D;67641;59.864;30.464;2023-05-10T12:44:43;21.62;44.90
78366;HTU21D;67641;59.864;30.464;2023-05-10T12:47:10;21.51;45.12
78366;HTU21D;67641;59.864;30.464;2023-05-10T12:49:54;21.47;45.26
78366;HTU21D;67641;59.864;30.464;2023-05-10T12:52:21;21.46;44.73
78366;HTU21D;67641;59.864;30.464;2023-05-10T12:54:48;21.44;44.93
78366;HTU21D;67641;59.864;30.464;2023-05-10T12:57:15;21.46;44.89
78366;HTU21D;67641;59.864;30.464;2023-05-10T12:59:42;21.54;43.09
78366;HTU21D;67641;59.864;30.464;2023-05-10T13:02:09;21.65;42.33
78366;HTU21D;67641;59.864;30.464;2023-05-10T13:04:36;21.66;45.35
78366;HTU21D;67641;59.864;30.464;2023-05-10T13:07:06;21.75;45.10
78366;HTU21D;67641;59.864;30.464;2023-05-10T13:09:33;21.85;44.61
78366;HTU21D;67641;59.864;30.464;2023-05-10T13:14:36;21.82;41.62
78366;HTU21D;67641;59.864;30.464;2023-05-10T13:17:03;21.92;42.55
78366;HTU21D;67641;59.864;30.464;2023-05-10T13:19:30;22.01;41.34
78366;HTU21D;67641;59.864;30.464;2023-05-10T13:21:57;21.93;41.49
78366;HTU21D;67641;59.864;30.464;2023-05-10T13:24:24;21.83;42.23
78366;HTU21D;67641;59.864;30.464;2023-05-10T13:26:50;21.75;43.17
78366;HTU21D;67641;59.864;30.464;2023-05-10T13:29:17;21.70;44.16
78366;HTU21D;67641;59.864;30.464;2023-05-10T13:31:44;21.62;44.44
78366;HTU21D;67641;59.864;30.464;2023-05-10T13:34:11;21.54;45.34
78366;HTU21D;67641;59.864;30.464;2023-05-10T13:39:16;21.37;45.93
78366;HTU21D;67641;59.864;30.464;2023-05-10T13:41:42;21.34;46.45
78366;HTU21D;67641;59.864;30.464;2023-05-10T13:44:12;21.28;45.67
78366;HTU21D;67641;59.864;30.464;2023-05-10T13:46:40;21.21;45.44
78366;HTU21D;67641;59.864;30.464;2023-05-10T13:49:08;21.30;44.61
78366;HTU21D;67641;59.864;30.464;2023-05-10T13:51:34;21.38;46.05
78366;HTU21D;67641;59.864;30.464;2023-05-10T13:54:02;21.51;46.73
78366;HTU21D;67641;59.864;30.464;2023-05-10T13:56:29;21.66;44.63
78366;HTU21D;67641;59.864;30.464;2023-05-10T13:58:56;21.75;45.09
78366;HTU21D;67641;59.864;30.464;2023-05-10T14:03:30;21.76;44.72
78366;HTU21D;67641;59.864;30.464;2023-05-10T14:05:57;21.73;43.96
78366;HTU21D;67641;59.864;30.464;2023-05-10T14:08:24;21.67;43.19
78366;HTU21D;67641;59.864;30.464;2023-05-10T14:10:50;21.64;41.76
78366;HTU21D;67641;59.864;30.464;2023-05-10T14:13:18;21.67;42.03
78366;HTU21D;67641;59.864;30.464;2023-05-10T14:15:44;21.67;42.56
78366;HTU21D;67641;59.864;30.464;2023-05-10T14:18:12;21.60;43.45
78366;HTU21D;67641;59.864;30.464;2023-05-10T14:20:39;21.61;42.88
78366;HTU21D;67641;59.864;30.464;2023-05-10T14:23:06;21.65;41.91
78366;HTU21D;67641;59.864;30.464;2023-05-10T14:28:14;21.73;41.15
78366;HTU21D;67641;59.864;30.464;2023-05-10T14:30:41;21.61;40.53
78366;HTU21D;67641;59.864;30.464;2023-05-10T14:33:08;21.54;39.04
78366;HTU21D;67641;59.864;30.464;2023-05-10T14:35:35;21.49;39.40
78366;HTU21D;67641;59.864;30.464;2023-05-10T14:38:02;21.38;40.12
78366;HTU21D;67641;59.864;30.464;2023-05-10T14:40:32;21.30;39.97
78366;HTU21D;67641;59.864;30.464;2023-05-10T14:43:02;21.21;41.24
78366;HTU21D;67641;59.864;30.464;2023-05-10T14:45:29;21.19;40.95
78366;HTU21D;67641;59.864;30.464;2023-05-10T14:50:56;20.92;40.95
78366;HTU21D;67641;59.864;30.464;2023-05-10T14:53:26;20.84;40.49
78366;HTU21D;67641;59.864;30.464;2023-05-10T14:55:53;20.78;41.36
78366;HTU21D;67641;59.864;30.464;2023-05-10T14:58:20;20.75;41.84
78366;HTU21D;67641;59.864;30.464;2023-05-10T15:00:46;20.75;42.45
78366;HTU21D;67641;59.864;30.464;2023-05-10T15:03:13;20.70;42.09
78366;HTU21D;67641;59.864;30.464;2023-05-10T15:05:42;20.65;42.52
78366;HTU21D;67641;59.864;30.464;2023-05-10T15:08:09;20.61;43.35
78366;HTU21D;67641;59.864;30.464;2023-05-10T15:13:42;20.59;43.58
78366;HTU21D;67641;59.864;30.464;2023-05-10T15:16:14;20.60;45.09
78366;HTU21D;67641;59.864;30.464;2023-05-10T15:18:41;20.69;45.31
78366;HTU21D;67641;59.864;30.464;2023-05-10T15:21:08;20.77;44.71
78366;HTU21D;67641;59.864;30.464;2023-05-10T15:23:35;20.83;43.73
78366;HTU21D;67641;59.864;30.464;2023-05-10T15:26:02;20.83;43.64
78366;HTU21D;67641;59.864;30.464;2023-05-10T15:28:29;20.80;43.74
78366;HTU21D;67641;59.864;30.464;2023-05-10T15:30:56;20.76;43.23
78366;HTU21D;67641;59.864;30.464;2023-05-10T15:33:23;20.69;44.29
78366;HTU21D;67641;59.864;30.464;2023-05-10T15:36:15;20.64;44.93
78366;HTU21D;67641;59.864;30.464;2023-05-10T15:38:44;20.55;46.34
78366;HTU21D;67641;59.864;30.464;2023-05-10T15:41:10;20.48;45.94
78366;HTU21D;67641;59.864;30.464;2023-05-10T15:43:38;20.45;46.00
78366;HTU21D;67641;59.864;30.464;2023-05-10T15:46:05;20.39;46.47
78366;HTU21D;67641;59.864;30.464;2023-05-10T15:48:38;20.36;46.14
78366;HTU21D;67641;59.864;30.464;2023-05-10T15:51:06;20.35;46.47
78366;HTU21D;67641;59.864;30.464;2023-05-10T15:53:32;20.32;45.05
78366;HTU21D;67641;59.864;30.464;2023-05-10T15:58:41;20.21;45.57
78366;HTU21D;67641;59.864;30.464;2023-05-10T16:01:09;20.16;46.69
78366;HTU21D;67641;59.864;30.464;2023-05-10T16:03:37;20.10;48.98
78366;HTU21D;67641;59.864;30.464;2023-05-10T16:06:04;20.05;48.79
78366;HTU21D;67641;59.864;30.464;2023-05-10T16:08:31;19.98;49.85
78366;HTU21D;67641;59.864;30.464;2023-05-10T16:11:01;19.82;50.11
78366;HTU21D;67641;59.864;30.464;2023-05-10T16:13:31;19.60;50.99
78366;HTU21D;67641;59.864;30.464;2023-05-10T16:15:58;19.45;52.15
78366;HTU21D;67641;59.864;30.464;2023-05-10T16:20:53;19.22;54.10
78366;HTU21D;67641;59.864;30.464;2023-05-10T16:23:20;19.09;54.33
78366;HTU21D;67641;59.864;30.464;2023-05-10T16:25:48;18.99;54.87
78366;HTU21D;67641;59.864;30.464;2023-05-10T16:28:14;18.99;55.66
78366;HTU21D;67641;59.864;30.464;2023-05-10T16:30:41;18.98;55.41
78366;HTU21D;67641;59.864;30.464;2023-05-10T16:33:08;18.91;55.57
78366;HTU21D;67641;59.864;30.464;2023-05-10T16:35:35;18.85;54.94
78366;HTU21D;67641;59.864;30.464;2023-05-10T16:38:02;18.87;55.13
78366;HTU21D;67641;59.864;30.464;2023-05-10T16:40:29;18.80;55.23
78366;HTU21D;67641;59.864;30.464;2023-05-10T16:43:21;18.77;55.96
78366;HTU21D;67641;59.864;30.464;2023-05-10T16:45:48;18.77;55.78
78366;HTU21D;67641;59.864;30.464;2023-05-10T16:48:15;18.72;55.39
78366;HTU21D;67641;59.864;30.464;2023-05-10T16:50:42;18.71;55.24
78366;HTU21D;67641;59.864;30.464;2023-05-10T16:53:10;18.65;55.16
78366;HTU21D;67641;59.864;30.464;2023-05-10T16:55:39;18.53;55.94
78366;HTU21D;67641;59.864;30.464;2023-05-10T16:58:05;18.40;56.56
78366;HTU21D;67641;59.864;30.464;2023-05-10T17:00:32;18.38;56.85
78366;HTU21D;67641;59.864;30.464;2023-05-10T17:02:59;18.33;55.99
78366;HTU21D;67641;59.864;30.464;2023-05-10T17:05:49;18.27;55.39
78366;HTU21D;67641;59.864;30.464;2023-05-10T17:08:16;18.23;56.07